Impacts TAF Board INFO
FOR SITUATIONAL AWARENESS. NOT TO BE USED FOR FLIGHT PLANNING PURPOSES.
IDs:

KMCB - McComb/Lewis Fld, MS, US

Issued at 1123 UTC 20 May 2018
Updated at 1150 UTC 20 May 2018
Potential Impact None Slight Moderate High
Time<<21/00Z 21/01Z 21/02Z 21/03Z 21/04Z 21/05Z 21/06Z 21/07Z 21/08Z 21/09Z 21/10Z 21/11Z 21/12Z>>
Type PRVL PRVL PRVL PRVL PRVL PRVL PRVL PRVL PRVL PRVL PRVL PRVL
VIS >6 >6 >6 >6 >6 >6 >6 >6 >6 >6 >6 >6
CIG -- -- -- -- -- -- -- -- -- -- 110 110
Cover SCT SCT SCT SCT SCT SCT SCT SCT SCT SCT BKN BKN
FltCat VFR VFR VFR VFR VFR VFR VFR VFR VFR VFR VFR VFR
WX VCTS VCTS VCTS -- -- -- -- -- -- -- -- --
WDir VRB VRB VRB VRB VRB VRB VRB VRB VRB VRB VRB VRB
WSpd 3 3 3 0 0 0 0 0 0 0 0 0
WGst -- -- -- -- -- -- -- -- -- -- -- --

Raw TAF
KMCB 201123Z 2012/2112 00000KT P6SM FEW013
  FM201300 00000KT P6SM FEW015 SCT080
  FM201700 VRB03KT P6SM VCTS FEW035CB SCT130
  FM210300 00000KT P6SM FEW008 SCT150
  FM211000 00000KT P6SM BKN110


METAR Board
Radar Display
Forecast Discussion

FOR SITUATIONAL AWARENESS. NOT TO BE USED FOR FLIGHT PLANNING PURPOSES.